Time;durP1;ratioP1;P1;durP2;ratioP2;P2;SDS_P1;SDS_P2;PMS_P1;PMS_P2;Temp;Humidity;BMP_temperature;BMP_pressure;BME280_temperature;BME280_humidity;BME280_pressure;Samples;Min_cycle;Max_cycle;Signal;HPM_P1;HPM_P2
2022/09/24 00:01:59;;;;;;;40.08;28.88;;;10.50;99.90;;;;;;5015338;28;20100;-72
2022/09/24 00:04:26;;;;;;;38.20;26.80;;;10.60;99.90;;;;;;5014845;28;20034;-72
2022/09/24 00:06:52;;;;;;;46.17;30.20;;;10.60;99.90;;;;;;5015370;28;20018;-72
2022/09/24 00:09:20;;;;;;;41.33;27.55;;;10.60;99.90;;;;;;5001409;28;20038;-72
2022/09/24 00:11:51;;;;;;;46.67;29.45;;;10.60;99.90;;;;;;4995643;28;20031;-72
2022/09/24 00:14:16;;;;;;;42.97;30.48;;;10.60;99.90;;;;;;4995188;28;20045;-72
2022/09/24 00:16:44;;;;;;;45.22;29.38;;;10.60;99.90;;;;;;4995660;28;20367;-72
2022/09/24 00:19:11;;;;;;;45.00;33.55;;;10.60;99.90;;;;;;4995543;28;20113;-71
2022/09/24 00:21:38;;;;;;;43.70;32.58;;;10.70;99.90;;;;;;4995488;28;20101;-72
2022/09/24 00:26:48;;;;;;;40.53;30.25;;;10.70;99.90;;;;;;4995469;28;20027;-72
2022/09/24 00:27:02;;;;;;;43.60;29.88;;;10.70;99.90;;;;;;4996035;28;20049;-72
2022/09/24 00:29:30;;;;;;;44.17;29.13;;;10.60;99.90;;;;;;4996411;28;20076;-72
2022/09/24 00:31:55;;;;;;;52.50;30.33;;;10.60;99.90;;;;;;5004655;28;20486;-72
2022/09/24 00:34:21;;;;;;;46.40;28.63;;;10.70;99.90;;;;;;5014202;28;20037;-71
2022/09/24 00:36:47;;;;;;;41.38;28.17;;;10.70;99.90;;;;;;5015035;28;20030;-71
2022/09/24 00:39:13;;;;;;;42.22;29.58;;;10.70;99.90;;;;;;5014740;28;20021;-72
2022/09/24 00:41:43;;;;;;;45.80;31.40;;;10.70;99.90;;;;;;5014749;28;20029;-72
2022/09/24 00:44:40;;;;;;;43.50;29.50;;;10.70;99.90;;;;;;4998461;28;20033;-72
2022/09/24 00:47:37;;;;;;;53.00;29.45;;;10.70;99.90;;;;;;4995019;28;20100;-72
2022/09/24 00:50:09;;;;;;;43.40;28.90;;;10.70;99.90;;;;;;4994921;28;20022;-72
2022/09/24 00:52:38;;;;;;;40.53;29.65;;;10.70;99.90;;;;;;4994751;28;20034;-71
2022/09/24 00:55:05;;;;;;;41.42;31.55;;;10.70;99.90;;;;;;4994980;28;20030;-72
2022/09/24 00:57:31;;;;;;;43.45;29.98;;;10.70;99.90;;;;;;4994551;28;20395;-71
2022/09/24 00:59:56;;;;;;;49.28;31.17;;;10.70;99.90;;;;;;4976927;28;20030;-71
2022/09/24 01:02:23;;;;;;;48.33;29.23;;;10.70;99.90;;;;;;4994652;28;20019;-72
2022/09/24 01:04:48;;;;;;;48.97;31.92;;;10.70;99.90;;;;;;4994848;28;20046;-72
2022/09/24 01:07:14;;;;;;;41.17;30.02;;;10.70;99.90;;;;;;4994674;28;20062;-72
2022/09/24 01:09:39;;;;;;;44.30;30.65;;;10.70;99.90;;;;;;4994651;28;20088;-71
2022/09/24 01:12:25;;;;;;;45.90;32.25;;;10.70;99.90;;;;;;4993986;28;20085;-72
2022/09/24 01:15:14;;;;;;;42.60;30.38;;;10.70;99.90;;;;;;4994431;28;20425;-71
2022/09/24 01:17:57;;;;;;;49.10;32.47;;;10.70;99.90;;;;;;4994521;28;20031;-72
2022/09/24 01:20:36;;;;;;;43.33;30.92;;;10.70;99.90;;;;;;4994728;28;20057;-72
2022/09/24 01:23:36;;;;;;;37.55;28.65;;;10.70;99.90;;;;;;4980354;28;20030;-71
2022/09/24 01:26:10;;;;;;;39.88;29.75;;;10.70;99.90;;;;;;5007421;28;20036;-72
2022/09/24 01:28:54;;;;;;;43.58;32.50;;;10.70;99.90;;;;;;5014586;28;20072;-72
2022/09/24 01:31:40;;;;;;;;;;;10.80;99.90;;;;;;5014340;28;20029;-72
2022/09/24 01:34:07;;;;;;;49.88;31.27;;;10.70;99.90;;;;;;5013816;28;19909;-72
2022/09/24 01:36:34;;;;;;;41.45;29.48;;;10.70;99.90;;;;;;5013888;28;20046;-72
2022/09/24 01:39:01;;;;;;;41.50;29.95;;;10.70;99.90;;;;;;5013310;28;20030;-72
2022/09/24 01:41:27;;;;;;;41.08;31.02;;;10.70;99.90;;;;;;5013862;28;20018;-72
2022/09/24 01:43:53;;;;;;;44.03;30.85;;;10.70;99.90;;;;;;5010165;28;20029;-71
2022/09/24 01:46:20;;;;;;;50.40;30.55;;;10.70;99.90;;;;;;4993599;28;20034;-71
2022/09/24 01:48:46;;;;;;;41.40;28.25;;;10.70;99.90;;;;;;4994079;28;20030;-71
2022/09/24 01:51:20;;;;;;;40.15;29.33;;;10.70;99.90;;;;;;4994011;28;20027;-72
2022/09/24 01:53:49;;;;;;;41.78;29.67;;;10.70;99.90;;;;;;4993316;28;20038;-72
2022/09/24 01:56:23;;;;;;;43.63;29.30;;;10.70;99.90;;;;;;4993465;28;20110;-72
2022/09/24 01:58:52;;;;;;;45.63;31.30;;;10.70;99.90;;;;;;4992965;28;20018;-71
2022/09/24 02:01:28;;;;;;;48.75;32.20;;;10.70;99.90;;;;;;4993462;28;20018;-72
2022/09/24 02:04:04;;;;;;;43.47;30.90;;;10.60;99.90;;;;;;4993127;28;20545;-72
2022/09/24 02:06:39;;;;;;;42.63;32.17;;;10.70;99.90;;;;;;4992713;28;20073;-71
2022/09/24 02:09:05;;;;;;;39.97;28.15;;;10.60;99.90;;;;;;4993157;28;20494;-71
2022/09/24 02:11:34;;;;;;;38.65;29.60;;;10.60;99.90;;;;;;4993237;28;20037;-72
2022/09/24 02:14:08;;;;;;;39.97;30.13;;;10.60;99.90;;;;;;4992888;28;20579;-72
2022/09/24 02:16:42;;;;;;;47.42;30.55;;;10.60;99.90;;;;;;4993331;28;20019;-71
2022/09/24 02:19:12;;;;;;;47.00;32.53;;;10.60;99.90;;;;;;4994708;28;20026;-72
2022/09/24 02:21:40;;;;;;;40.08;30.45;;;10.50;99.90;;;;;;4996567;28;20359;-71
2022/09/24 02:24:11;;;;;;;40.72;30.20;;;10.50;99.90;;;;;;4996187;28;20033;-71
2022/09/24 02:26:37;;;;;;;38.22;28.08;;;10.50;99.90;;;;;;4995867;28;20050;-72
2022/09/24 02:29:04;;;;;;;39.30;30.30;;;10.50;99.90;;;;;;4996763;28;20054;-72
2022/09/24 02:31:32;;;;;;;42.58;31.55;;;10.50;99.90;;;;;;4996573;28;20026;-72
2022/09/24 02:34:23;;;;;;;43.15;32.40;;;10.50;99.90;;;;;;4996052;28;20026;-73
2022/09/24 02:37:04;;;;;;;44.25;32.15;;;10.60;99.90;;;;;;4996503;28;20027;-72
2022/09/24 02:39:30;;;;;;;42.92;30.48;;;10.60;99.90;;;;;;4994537;28;20114;-72
2022/09/24 02:41:57;;;;;;;47.67;32.63;;;10.60;99.90;;;;;;4996221;28;20054;-70
2022/09/24 02:44:23;;;;;;;43.10;32.10;;;10.70;99.90;;;;;;4995917;28;20026;-70
2022/09/24 02:46:49;;;;;;;37.88;29.27;;;10.70;99.90;;;;;;4996295;28;20518;-70
2022/09/24 02:49:15;;;;;;;42.08;31.20;;;10.70;99.90;;;;;;4996503;28;20475;-70
2022/09/24 02:51:42;;;;;;;42.72;31.70;;;10.70;99.90;;;;;;4995977;28;20568;-70
2022/09/24 02:54:08;;;;;;;41.10;31.85;;;10.60;99.90;;;;;;5031384;23;1034370;-68
2022/09/24 02:56:34;;;;;;;42.88;33.63;;;10.70;99.90;;;;;;5076392;28;20089;-68
2022/09/24 02:59:01;;;;;;;47.53;32.80;;;10.60;99.90;;;;;;5076337;28;20040;-68
2022/09/24 03:01:28;;;;;;;42.70;31.95;;;10.60;99.90;;;;;;5076524;28;20025;-68
2022/09/24 03:03:53;;;;;;;42.47;31.10;;;10.60;99.90;;;;;;5076131;28;20119;-68
2022/09/24 03:06:19;;;;;;;43.78;32.72;;;10.60;99.90;;;;;;5075690;28;20067;-68
2022/09/24 03:08:46;;;;;;;44.25;33.72;;;10.60;99.90;;;;;;5076123;28;20020;-68
2022/09/24 03:11:12;;;;;;;47.90;33.08;;;10.60;99.90;;;;;;5076633;28;20130;-68
2022/09/24 03:13:38;;;;;;;52.90;36.97;;;10.60;99.90;;;;;;5076339;28;20032;-68
2022/09/24 03:16:05;;;;;;;44.97;33.78;;;10.60;99.90;;;;;;5076510;28;20020;-68
2022/09/24 03:18:32;;;;;;;47.35;34.13;;;10.60;99.90;;;;;;5075431;28;20059;-67
2022/09/24 03:21:07;;;;;;;51.75;33.15;;;10.60;99.90;;;;;;5075943;28;20065;-67
2022/09/24 03:23:33;;;;;;;41.80;31.88;;;10.60;99.90;;;;;;5075918;28;20427;-67
2022/09/24 03:25:59;;;;;;;45.97;33.58;;;10.60;99.90;;;;;;5076050;28;20056;-67
2022/09/24 03:28:25;;;;;;;48.53;35.00;;;10.60;99.90;;;;;;5075163;28;20056;-67
2022/09/24 03:30:59;;;;;;;53.40;39.33;;;10.60;99.90;;;;;;5074846;28;20113;-67
2022/09/24 03:33:45;;;;;;;53.17;35.55;;;10.60;99.90;;;;;;5091193;28;20044;-67
2022/09/24 03:36:23;;;;;;;55.42;40.30;;;10.60;99.90;;;;;;5075898;28;20029;-67
2022/09/24 03:38:53;;;;;;;47.97;34.58;;;10.60;99.90;;;;;;5075787;28;20384;-67
2022/09/24 03:41:18;;;;;;;48.58;36.58;;;10.60;99.90;;;;;;5074948;28;20548;-67
2022/09/24 03:43:44;;;;;;;47.55;35.17;;;10.60;99.90;;;;;;5075359;28;20117;-67
2022/09/24 03:46:11;;;;;;;47.90;35.67;;;10.60;99.90;;;;;;5075360;28;20052;-66
2022/09/24 03:48:39;;;;;;;55.20;38.67;;;10.60;99.90;;;;;;5075335;28;20013;-67
2022/09/24 03:51:05;;;;;;;52.65;36.50;;;10.60;99.90;;;;;;5075267;28;20027;-67
2022/09/24 03:53:32;;;;;;;51.22;36.95;;;10.60;99.90;;;;;;5074989;28;20051;-66
2022/09/24 03:55:58;;;;;;;49.38;35.47;;;10.60;99.90;;;;;;5070909;28;20021;-67
2022/09/24 03:58:25;;;;;;;46.50;34.67;;;10.60;99.90;;;;;;5071920;28;20054;-67
2022/09/24 04:00:52;;;;;;;50.97;37.05;;;10.60;99.90;;;;;;5075201;28;20021;-66
2022/09/24 04:03:18;;;;;;;49.92;33.55;;;10.60;99.90;;;;;;5074359;28;20036;-67
2022/09/24 04:05:43;;;;;;;46.28;34.97;;;10.60;99.90;;;;;;5075942;28;20070;-66
2022/09/24 04:08:09;;;;;;;47.97;37.78;;;10.60;99.90;;;;;;5075205;28;20025;-66
2022/09/24 04:10:34;;;;;;;47.47;34.85;;;10.60;99.90;;;;;;5075679;28;20032;-66
2022/09/24 04:13:00;;;;;;;43.20;32.38;;;10.60;99.90;;;;;;5075052;28;20029;-66
2022/09/24 04:15:25;;;;;;;53.08;35.95;;;10.60;99.90;;;;;;5074963;28;20021;-67
2022/09/24 04:17:55;;;;;;;46.50;35.03;;;10.60;99.90;;;;;;5074503;28;20020;-66
2022/09/24 04:20:23;;;;;;;44.25;32.97;;;10.60;99.90;;;;;;5074714;28;20016;-66
2022/09/24 04:22:50;;;;;;;47.47;35.13;;;10.60;99.90;;;;;;5074839;28;20150;-66
2022/09/24 04:25:16;;;;;;;52.20;35.60;;;10.60;99.90;;;;;;5074266;28;20021;-66
2022/09/24 04:27:44;;;;;;;53.35;37.20;;;10.60;99.90;;;;;;5074849;28;20484;-66
2022/09/24 04:30:12;;;;;;;54.67;38.38;;;10.60;99.90;;;;;;5074880;28;20037;-66
2022/09/24 04:32:38;;;;;;;44.72;34.60;;;10.60;99.90;;;;;;5074459;28;20056;-66
2022/09/24 04:35:04;;;;;;;51.33;36.25;;;10.60;99.90;;;;;;5074489;28;20464;-66
2022/09/24 04:37:30;;;;;;;52.42;38.75;;;10.60;99.90;;;;;;5073905;28;20104;-66
2022/09/24 04:39:56;;;;;;;46.33;35.75;;;10.60;99.90;;;;;;5073993;28;20052;-67
2022/09/24 04:42:21;;;;;;;48.95;34.33;;;10.60;99.90;;;;;;5074555;28;20098;-66
2022/09/24 04:44:47;;;;;;;48.60;34.90;;;10.60;99.90;;;;;;5074501;28;20032;-66
2022/09/24 04:47:14;;;;;;;47.10;35.45;;;10.60;99.90;;;;;;5073971;28;20491;-66
2022/09/24 04:49:42;;;;;;;49.35;35.50;;;10.60;99.90;;;;;;5074170;28;20107;-66
2022/09/24 04:52:07;;;;;;;50.90;35.50;;;10.60;99.90;;;;;;5074366;28;20024;-66
2022/09/24 04:54:33;;;;;;;49.72;36.72;;;10.60;99.90;;;;;;5073259;28;20037;-66
2022/09/24 04:56:58;;;;;;;53.00;37.08;;;10.60;99.90;;;;;;5074600;28;20365;-66
2022/09/24 04:59:24;;;;;;;49.88;36.63;;;10.60;99.90;;;;;;5073934;28;20078;-66
2022/09/24 05:01:50;;;;;;;52.92;37.47;;;10.70;99.90;;;;;;5071932;28;20029;-66
2022/09/24 05:04:16;;;;;;;48.33;35.28;;;10.60;99.90;;;;;;5072554;28;20082;-67
2022/09/24 05:06:41;;;;;;;51.70;35.88;;;10.60;99.90;;;;;;5073861;28;20020;-66
2022/09/24 05:09:07;;;;;;;48.72;37.10;;;10.60;99.90;;;;;;5073537;28;20377;-66
2022/09/24 05:11:32;;;;;;;46.20;33.72;;;10.60;99.90;;;;;;5073748;28;20484;-66
2022/09/24 05:13:58;;;;;;;51.72;36.10;;;10.60;99.90;;;;;;5073822;28;20029;-66
2022/09/24 05:16:24;;;;;;;52.65;35.95;;;10.60;99.90;;;;;;5073678;28;20025;-66
2022/09/24 05:18:49;;;;;;;53.53;39.15;;;10.60;99.90;;;;;;5073202;28;20066;-66
2022/09/24 05:21:15;;;;;;;51.55;36.72;;;10.60;99.90;;;;;;5073613;28;20384;-66
2022/09/24 05:23:40;;;;;;;43.40;33.72;;;10.60;99.90;;;;;;5072945;28;20892;-66
2022/09/24 05:28:52;;;;;;;51.10;37.17;;;10.60;99.90;;;;;;5053059;28;20032;-66
2022/09/24 05:31:17;;;;;;;46.25;36.40;;;10.60;99.90;;;;;;5053517;28;20028;-66
2022/09/24 05:33:43;;;;;;;57.38;36.85;;;10.60;99.90;;;;;;5053455;28;20021;-66
2022/09/24 05:36:08;;;;;;;47.83;36.47;;;10.60;99.90;;;;;;5052843;28;20423;-67
2022/09/24 05:38:34;;;;;;;51.13;37.58;;;10.60;99.90;;;;;;5053670;28;20021;-66
2022/09/24 05:41:00;;;;;;;63.47;41.03;;;10.60;99.90;;;;;;5071508;28;20024;-66
2022/09/24 05:43:26;;;;;;;61.15;40.63;;;10.60;99.90;;;;;;5073300;28;20028;-66
2022/09/24 05:45:53;;;;;;;53.72;39.25;;;10.60;99.90;;;;;;5073453;28;20038;-66
2022/09/24 05:48:20;;;;;;;56.30;39.92;;;10.60;99.90;;;;;;5073220;28;20492;-66
2022/09/24 05:50:46;;;;;;;54.90;41.22;;;10.70;99.90;;;;;;5072991;28;20050;-66
2022/09/24 05:53:11;;;;;;;50.95;36.85;;;10.60;99.90;;;;;;5070987;28;20041;-66
2022/09/24 05:55:38;;;;;;;52.72;36.60;;;10.70;99.90;;;;;;5073764;28;20032;-66
2022/09/24 05:58:06;;;;;;;53.72;38.55;;;10.70;99.90;;;;;;5073475;28;20032;-66
2022/09/24 06:00:32;;;;;;;51.75;38.97;;;10.70;99.90;;;;;;5073502;28;20097;-66
2022/09/24 06:03:17;;;;;;;55.53;38.80;;;10.70;99.90;;;;;;5072690;28;20568;-67
2022/09/24 06:05:47;;;;;;;62.50;44.88;;;10.70;99.90;;;;;;5073137;28;20097;-66
2022/09/24 06:08:14;;;;;;;57.63;38.65;;;10.70;99.90;;;;;;5073105;28;20035;-67
2022/09/24 06:10:46;;;;;;;53.65;40.28;;;10.70;99.90;;;;;;5072603;28;20025;-66
2022/09/24 06:13:13;;;;;;;51.05;37.05;;;10.70;99.90;;;;;;5073105;28;20020;-66
2022/09/24 06:15:41;;;;;;;53.92;37.83;;;10.70;99.90;;;;;;5072836;28;20350;-66
2022/09/24 06:18:08;;;;;;;55.67;38.63;;;10.70;99.90;;;;;;5073297;28;20024;-66
2022/09/24 06:20:33;;;;;;;51.50;38.58;;;10.80;99.90;;;;;;5072505;28;20024;-66
2022/09/24 06:22:59;;;;;;;55.20;39.75;;;10.80;99.90;;;;;;5073198;28;20017;-67
2022/09/24 06:25:25;;;;;;;54.42;41.35;;;10.80;99.90;;;;;;5073112;28;20021;-67
2022/09/24 06:27:59;;;;;;;61.75;42.47;;;10.80;99.90;;;;;;5072535;28;20090;-67
2022/09/24 06:30:27;;;;;;;58.88;41.47;;;10.80;99.90;;;;;;5073439;28;20024;-67
2022/09/24 06:32:53;;;;;;;60.28;42.63;;;10.90;99.90;;;;;;5073056;28;20063;-67
2022/09/24 06:35:19;;;;;;;64.03;45.83;;;10.90;99.90;;;;;;5072775;28;20472;-67
2022/09/24 06:37:48;;;;;;;82.30;56.20;;;10.90;99.90;;;;;;5073155;28;20027;-67
2022/09/24 06:40:14;;;;;;;71.18;49.95;;;10.90;99.90;;;;;;5072791;28;20051;-67
2022/09/24 06:42:40;;;;;;;64.45;43.33;;;10.90;99.90;;;;;;5072348;28;20031;-68
2022/09/24 06:45:06;;;;;;;65.43;47.28;;;10.90;99.90;;;;;;5072799;28;20025;-68
2022/09/24 06:47:31;;;;;;;58.67;42.72;;;11.00;99.90;;;;;;5073080;28;20399;-68
2022/09/24 06:49:57;;;;;;;61.22;44.47;;;11.00;99.90;;;;;;5072796;28;20025;-68
2022/09/24 06:52:22;;;;;;;61.15;42.88;;;11.00;99.90;;;;;;5072712;28;20028;-68
2022/09/24 06:54:48;;;;;;;56.05;40.53;;;11.10;99.90;;;;;;5072613;28;20032;-68
2022/09/24 06:57:14;;;;;;;56.53;40.95;;;11.10;99.90;;;;;;5072134;28;20050;-68
2022/09/24 06:59:40;;;;;;;65.05;42.75;;;11.20;99.90;;;;;;5072954;28;20070;-68
2022/09/24 07:02:07;;;;;;;59.70;44.53;;;11.20;99.90;;;;;;5072671;28;20017;-68
2022/09/24 07:04:32;;;;;;;53.83;39.55;;;11.30;99.90;;;;;;5075312;28;20121;-69
2022/09/24 07:09:42;;;;;;;61.60;42.53;;;11.40;99.90;;;;;;5075585;28;20214;-68
2022/09/24 07:12:07;;;;;;;55.22;40.72;;;11.40;99.90;;;;;;5076032;28;20528;-68
2022/09/24 07:14:33;;;;;;;57.05;41.13;;;11.50;99.90;;;;;;5074485;28;20031;-68
2022/09/24 07:16:59;;;;;;;69.90;42.92;;;11.50;99.90;;;;;;5075759;28;20029;-69
2022/09/24 07:19:24;;;;;;;59.58;41.65;;;11.50;99.90;;;;;;5075633;28;20491;-68
2022/09/24 07:21:50;;;;;;;57.70;41.72;;;11.60;99.90;;;;;;5075804;28;20039;-68
2022/09/24 07:24:15;;;;;;;56.95;39.17;;;11.70;99.90;;;;;;5076066;28;20025;-68
2022/09/24 07:26:41;;;;;;;59.80;43.13;;;11.70;99.90;;;;;;5076377;28;20078;-68
2022/09/24 07:29:07;;;;;;;67.50;48.92;;;11.70;99.90;;;;;;5075441;28;20032;-68
2022/09/24 07:31:35;;;;;;;65.57;49.90;;;11.70;99.90;;;;;;5075722;28;20434;-68
2022/09/24 07:34:00;;;;;;;70.47;50.65;;;11.70;99.90;;;;;;5075493;28;20043;-68
2022/09/24 07:36:29;;;;;;;62.30;44.13;;;11.80;99.90;;;;;;5074403;28;20024;-68
2022/09/24 07:38:55;;;;;;;88.93;60.58;;;11.80;99.90;;;;;;5075568;28;20388;-68
2022/09/24 07:41:20;;;;;;;77.53;56.53;;;11.80;99.90;;;;;;5073180;28;20031;-68
2022/09/24 07:43:46;;;;;;;69.18;51.10;;;11.90;99.90;;;;;;5075628;28;20025;-68
2022/09/24 07:46:12;;;;;;;65.80;46.90;;;12.00;99.90;;;;;;5073627;28;20021;-68
2022/09/24 07:48:38;;;;;;;67.15;52.33;;;12.00;99.90;;;;;;5075419;28;20030;-68
2022/09/24 07:51:08;;;;;;;75.30;52.65;;;12.10;99.90;;;;;;5075292;28;20047;-68
2022/09/24 07:53:33;;;;;;;71.18;51.35;;;12.00;99.90;;;;;;5075141;28;20396;-68
2022/09/24 07:55:59;;;;;;;69.75;46.65;;;12.10;99.90;;;;;;5067198;28;20025;-68
2022/09/24 07:58:25;;;;;;;69.50;48.92;;;12.20;99.90;;;;;;5056455;28;20028;-68
2022/09/24 08:00:51;;;;;;;75.90;52.85;;;12.20;99.90;;;;;;5075644;28;20024;-68
2022/09/24 08:03:16;;;;;;;64.05;48.13;;;12.30;99.90;;;;;;5074509;28;20016;-68
2022/09/24 08:05:46;;;;;;;71.60;52.38;;;12.30;99.90;;;;;;5074883;28;20373;-68
2022/09/24 08:08:12;;;;;;;69.80;50.88;;;12.40;99.90;;;;;;5075363;28;20097;-68
2022/09/24 08:10:38;;;;;;;75.68;53.15;;;12.30;99.90;;;;;;5070062;28;20029;-68
2022/09/24 08:13:04;;;;;;;66.35;46.72;;;12.40;99.90;;;;;;5069133;28;20020;-69
2022/09/24 08:15:30;;;;;;;78.82;53.75;;;12.50;99.90;;;;;;5073458;28;20025;-68
2022/09/24 08:18:02;;;;;;;73.40;51.40;;;12.50;99.90;;;;;;5075046;28;20024;-67
2022/09/24 08:20:29;;;;;;;74.93;55.45;;;12.60;99.90;;;;;;5074739;28;20023;-67
2022/09/24 08:23:06;;;;;;;64.65;45.58;;;12.70;99.90;;;;;;5074243;28;20056;-68
2022/09/24 08:25:32;;;;;;;76.97;54.03;;;12.70;99.90;;;;;;5074916;28;20365;-67
2022/09/24 08:28:05;;;;;;;80.75;54.15;;;12.80;99.90;;;;;;5074573;28;20034;-67
2022/09/24 08:30:31;;;;;;;78.07;55.50;;;12.80;99.90;;;;;;5075112;28;20032;-68
2022/09/24 08:32:57;;;;;;;77.05;52.45;;;12.80;99.90;;;;;;5074704;28;20308;-67
2022/09/24 08:35:23;;;;;;;77.25;49.70;;;12.70;99.90;;;;;;5074544;28;20033;-67
2022/09/24 08:37:48;;;;;;;66.57;47.60;;;12.80;99.90;;;;;;5073927;28;20020;-67
2022/09/24 08:40:21;;;;;;;62.38;45.25;;;12.90;99.90;;;;;;5074799;28;20017;-67
2022/09/24 08:43:03;;;;;;;65.38;48.88;;;13.10;99.90;;;;;;5074231;28;20038;-67
2022/09/24 08:48:28;;;;;;;89.57;56.03;;;13.30;99.90;;;;;;5054590;28;20082;-69
2022/09/24 08:50:59;;;;;;;73.30;50.03;;;13.40;99.90;;;;;;5074132;28;20017;-69
2022/09/24 08:53:30;;;;;;;69.40;46.65;;;13.50;99.90;;;;;;5109951;22;20415;-71
2022/09/24 08:55:59;;;;;;;76.45;48.60;;;13.60;99.90;;;;;;5014330;28;20030;-72
2022/09/24 08:58:42;;;;;;;70.60;46.75;;;13.70;99.90;;;;;;5015003;28;20466;-72
2022/09/24 09:01:11;;;;;;;77.72;44.88;;;13.90;99.90;;;;;;4995503;28;20056;-72
2022/09/24 09:03:44;;;;;;;85.60;46.28;;;14.00;99.90;;;;;;4995036;28;20061;-72
2022/09/24 09:06:18;;;;;;;73.75;45.05;;;14.10;99.90;;;;;;4995369;28;20034;-72
2022/09/24 09:08:50;;;;;;;70.63;45.05;;;14.20;99.90;;;;;;4994714;28;20084;-72
2022/09/24 09:11:22;;;;;;;77.45;47.20;;;14.30;99.90;;;;;;5013713;28;20026;-73
2022/09/24 09:13:56;;;;;;;80.75;46.92;;;14.40;99.90;;;;;;5014457;28;20167;-72
2022/09/24 09:16:27;;;;;;;72.38;43.60;;;14.50;99.90;;;;;;5014703;28;20025;-72
2022/09/24 09:18:59;;;;;;;80.95;45.78;;;14.60;99.90;;;;;;5013979;28;20027;-73
2022/09/24 09:21:38;;;;;;;79.47;44.88;;;14.60;99.90;;;;;;5014778;28;20025;-73
2022/09/24 09:24:04;;;;;;;83.03;49.40;;;14.50;99.90;;;;;;5014176;28;20022;-72
2022/09/24 09:26:30;;;;;;;75.72;45.40;;;14.60;99.90;;;;;;5013441;28;20026;-72
2022/09/24 09:29:01;;;;;;;71.57;41.03;;;14.60;99.90;;;;;;5014355;28;20045;-72
2022/09/24 09:31:52;;;;;;;63.47;39.22;;;14.60;99.90;;;;;;5013852;28;20033;-72
2022/09/24 09:34:21;;;;;;;91.78;52.00;;;14.70;99.90;;;;;;5014145;28;20050;-72
2022/09/24 09:37:01;;;;;;;79.40;46.55;;;14.60;99.90;;;;;;5014223;28;20018;-72
2022/09/24 09:39:52;;;;;;;81.10;49.63;;;14.70;99.90;;;;;;4994885;28;20048;-72
2022/09/24 09:42:34;;;;;;;73.40;45.15;;;14.70;99.90;;;;;;4994757;28;20066;-72
2022/09/24 09:45:20;;;;;;;80.55;48.85;;;14.80;99.90;;;;;;4994751;28;20022;-72
2022/09/24 09:47:49;;;;;;;88.05;52.55;;;14.80;99.90;;;;;;4995463;28;20022;-72
2022/09/24 09:50:25;;;;;;;89.88;52.65;;;14.70;99.90;;;;;;4995659;28;20390;-72
2022/09/24 09:52:50;;;;;;;97.10;56.00;;;14.80;99.90;;;;;;4994611;28;20026;-72
2022/09/24 09:55:22;;;;;;;98.10;55.58;;;14.90;99.90;;;;;;5011699;28;20041;-72
2022/09/24 09:57:49;;;;;;;110.68;64.90;;;15.00;99.90;;;;;;5013449;28;20032;-72
2022/09/24 10:00:33;;;;;;;89.78;55.47;;;15.10;99.90;;;;;;5014300;28;20113;-72
2022/09/24 10:02:59;;;;;;;117.72;63.10;;;15.10;99.90;;;;;;5013804;28;20045;-72
2022/09/24 10:05:27;;;;;;;104.57;59.97;;;15.10;99.90;;;;;;5013648;28;20097;-71
2022/09/24 10:07:56;;;;;;;105.63;61.80;;;15.10;99.90;;;;;;5014448;28;20374;-72
2022/09/24 10:10:23;;;;;;;92.50;55.83;;;15.10;99.90;;;;;;5013830;28;20080;-72
2022/09/24 10:12:53;;;;;;;92.88;56.15;;;15.10;99.90;;;;;;5013304;28;20030;-72
2022/09/24 10:15:21;;;;;;;102.97;59.90;;;15.10;99.90;;;;;;5014533;28;20042;-72
2022/09/24 10:17:51;;;;;;;100.03;60.22;;;15.10;99.90;;;;;;5013830;28;20436;-72
2022/09/24 10:20:28;;;;;;;91.18;55.25;;;15.20;99.90;;;;;;5013636;28;20097;-72
2022/09/24 10:23:01;;;;;;;94.65;59.20;;;15.10;99.90;;;;;;4994802;28;20462;-72
2022/09/24 10:25:29;;;;;;;93.05;61.83;;;15.10;99.90;;;;;;4993532;28;20022;-72
2022/09/24 10:31:10;;;;;;;100.03;61.10;;;15.00;99.90;;;;;;4997383;28;20052;-72
2022/09/24 10:33:37;;;;;;;104.53;63.38;;;15.10;99.90;;;;;;5013626;28;20445;-72
2022/09/24 10:36:24;;;;;;;109.40;62.65;;;15.30;99.90;;;;;;5012877;28;20096;-72
2022/09/24 10:39:02;;;;;;;99.32;60.70;;;15.10;99.90;;;;;;5015647;28;20018;-72
2022/09/24 10:41:30;;;;;;;96.70;59.42;;;15.10;99.90;;;;;;5017301;28;20022;-72
2022/09/24 10:44:00;;;;;;;91.55;57.22;;;15.00;99.90;;;;;;5016647;28;20022;-72
2022/09/24 10:46:49;;;;;;;88.80;55.38;;;15.00;99.90;;;;;;5017183;28;20022;-72
2022/09/24 10:49:16;;;;;;;90.22;55.30;;;15.00;99.90;;;;;;5017510;28;20109;-72
2022/09/24 10:52:28;;;;;;;90.68;58.75;;;15.00;99.90;;;;;;5017111;28;20504;-72
2022/09/24 10:55:05;;;;;;;99.68;56.67;;;15.10;99.90;;;;;;5016281;28;20033;-73
2022/09/24 10:57:40;;;;;;;86.25;54.75;;;15.00;99.90;;;;;;5017487;28;20461;-73
2022/09/24 11:00:22;;;;;;;82.25;51.33;;;15.00;99.90;;;;;;5017041;28;20469;-73
2022/09/24 11:03:04;;;;;;;83.93;51.10;;;15.10;99.90;;;;;;5016821;28;20037;-73
2022/09/24 11:05:47;;;;;;;93.07;52.40;;;15.10;99.90;;;;;;5016328;28;20045;-73
2022/09/24 11:08:18;;;;;;;79.88;51.13;;;15.10;99.90;;;;;;5017232;28;20109;-72
2022/09/24 11:10:50;;;;;;;87.32;54.15;;;15.00;99.90;;;;;;5017199;28;20076;-72
2022/09/24 11:13:43;;;;;;;72.28;46.20;;;15.00;99.90;;;;;;5016959;28;20105;-73
2022/09/24 11:16:24;;;;;;;89.28;49.90;;;15.10;99.90;;;;;;5016296;28;20033;-72
2022/09/24 11:19:01;;;;;;;72.82;45.08;;;15.10;99.90;;;;;;5016637;28;20017;-72
2022/09/24 11:22:04;;;;;;;83.53;46.92;;;15.00;99.90;;;;;;5016805;28;20026;-72
2022/09/24 11:25:02;;;;;;;69.97;44.33;;;15.00;99.90;;;;;;5016138;28;20105;-72
2022/09/24 11:27:47;;;;;;;80.80;42.60;;;15.00;99.90;;;;;;5016787;28;20018;-72
2022/09/24 11:30:18;;;;;;;73.63;47.08;;;15.10;99.90;;;;;;5016636;28;20026;-72
2022/09/24 11:32:55;;;;;;;78.85;49.63;;;15.10;99.90;;;;;;5016294;28;20080;-73
2022/09/24 11:35:58;;;;;;;81.60;43.38;;;15.10;99.90;;;;;;5016692;28;20030;-72
2022/09/24 11:38:35;;;;;;;63.03;38.90;;;15.10;99.90;;;;;;5015541;28;20072;-72
2022/09/24 11:41:32;;;;;;;61.55;37.70;;;15.10;99.90;;;;;;5016513;28;20044;-73
2022/09/24 11:44:12;;;;;;;61.85;33.92;;;15.20;99.90;;;;;;5016545;28;20137;-72
2022/09/24 11:46:50;;;;;;;57.55;33.42;;;15.10;99.90;;;;;;5015999;28;20105;-72
2022/09/24 11:49:39;;;;;;;72.85;39.60;;;15.10;99.90;;;;;;5015749;28;20018;-72
2022/09/24 11:52:14;;;;;;;58.55;31.70;;;15.20;99.90;;;;;;5015525;28;20026;-72
2022/09/24 11:55:09;;;;;;;63.67;31.38;;;15.20;99.90;;;;;;5015697;28;20494;-72
2022/09/24 11:57:43;;;;;;;63.00;30.80;;;15.30;99.90;;;;;;5016004;28;20045;-72
2022/09/24 12:00:16;;;;;;;48.72;27.02;;;15.20;99.90;;;;;;5016314;28;20026;-72
2022/09/24 12:03:06;;;;;;;57.20;30.98;;;15.10;99.90;;;;;;4997699;28;20536;-72
2022/09/24 12:05:52;;;;;;;51.80;31.15;;;15.10;99.90;;;;;;5015729;28;20042;-71
2022/09/24 12:08:28;;;;;;;50.08;24.38;;;15.00;99.90;;;;;;5015566;28;20030;-71
2022/09/24 12:11:10;;;;;;;45.97;25.92;;;15.00;99.90;;;;;;5016573;28;20110;-72
2022/09/24 12:14:04;;;;;;;42.22;24.63;;;15.00;99.90;;;;;;5016539;28;20389;-72
2022/09/24 12:16:35;;;;;;;48.00;26.70;;;15.00;99.90;;;;;;5004784;28;20065;-72
2022/09/24 12:19:21;;;;;;;46.05;25.63;;;15.00;99.90;;;;;;5015574;28;20057;-71
2022/09/24 12:21:50;;;;;;;54.92;32.55;;;15.00;99.90;;;;;;5015407;28;20026;-71
2022/09/24 12:24:37;;;;;;;71.40;39.88;;;15.10;99.90;;;;;;5014711;28;20029;-72
2022/09/24 12:27:10;;;;;;;43.88;23.08;;;15.10;99.90;;;;;;5015213;28;20022;-71
2022/09/24 12:33:05;;;;;;;82.63;32.53;;;15.20;99.90;;;;;;5015046;28;20028;-72
2022/09/24 12:35:42;;;;;;;42.55;20.52;;;15.10;99.90;;;;;;5015161;28;20030;-72
2022/09/24 12:38:15;;;;;;;37.33;19.08;;;15.10;99.90;;;;;;5015291;28;20022;-72
2022/09/24 12:41:18;;;;;;;43.03;21.08;;;15.10;99.90;;;;;;5015432;28;20477;-72
2022/09/24 12:43:50;;;;;;;36.38;19.52;;;15.10;99.90;;;;;;5014741;28;20167;-71
2022/09/24 12:46:39;;;;;;;37.15;17.92;;;15.10;99.90;;;;;;5014290;28;20045;-72
2022/09/24 12:49:23;;;;;;;37.42;17.60;;;15.00;99.90;;;;;;5003238;28;20486;-72
2022/09/24 12:51:49;;;;;;;42.17;17.02;;;15.00;99.90;;;;;;5014878;28;20026;-71
2022/09/24 12:54:23;;;;;;;33.45;15.52;;;15.10;99.90;;;;;;5014408;28;20548;-71
2022/09/24 12:56:49;;;;;;;39.70;17.13;;;15.10;99.90;;;;;;5014583;28;20026;-71
2022/09/24 12:59:27;;;;;;;37.83;16.73;;;15.10;99.90;;;;;;5014228;28;20022;-71
2022/09/24 13:01:54;;;;;;;38.85;18.23;;;15.20;99.90;;;;;;5014539;28;20029;-72